Silver Ridge, Maine
Current Conditions -  °F | °C
As of 2:07 AM on Thursday 18 Dec 2014 (Local Time) from KMLT Reporting Station
Light Snow Light Snow  
Wind Chill: -4°   Ceiling: 1100
Heat Index:   Visibility: 1.2mi
Dew Point: -1°   Wind: 8mph
Humidity: 92%   Direction: 360°N
Pressure: 29.61"   Gusts: NA
Location:  45.8047°N, 68.2984°W
Report Text: KMLT 180707Z AUTO 36007KT 1 1/4SM -SN BR OVC011 00/M01 A2961 RMK AO2 P0001 T00001011 $
Loading
Personal Weather Stations






























Interactive Weather Map New forecast layout! Learn more

10-Day Weather Forecast

Advertisements
Track Severe Weather on mobile